sensor_id;sensor_type;location;lat;lon;timestamp;P1;durP1;ratioP1;P2;durP2;ratioP2
4806;SDS011;2417;52.482;13.432;2022-12-07T00:01:17;53.93;;;22.90;;
4806;SDS011;2417;52.482;13.432;2022-12-07T00:03:46;32.77;;;15.27;;
4806;SDS011;2417;52.482;13.432;2022-12-07T00:06:15;42.77;;;18.10;;
4806;SDS011;2417;52.482;13.432;2022-12-07T00:08:43;43.67;;;20.30;;
4806;SDS011;2417;52.482;13.432;2022-12-07T00:11:12;38.77;;;17.60;;
4806;SDS011;2417;52.482;13.432;2022-12-07T00:13:40;45.47;;;21.83;;
4806;SDS011;2417;52.482;13.432;2022-12-07T00:16:09;38.00;;;18.00;;
4806;SDS011;2417;52.482;13.432;2022-12-07T00:18:39;41.43;;;17.80;;
4806;SDS011;2417;52.482;13.432;2022-12-07T00:21:10;33.37;;;15.80;;
4806;SDS011;2417;52.482;13.432;2022-12-07T00:23:39;36.90;;;17.20;;
4806;SDS011;2417;52.482;13.432;2022-12-07T00:26:08;37.43;;;17.47;;
4806;SDS011;2417;52.482;13.432;2022-12-07T00:28:36;50.00;;;26.50;;
4806;SDS011;2417;52.482;13.432;2022-12-07T00:31:05;31.90;;;16.63;;
4806;SDS011;2417;52.482;13.432;2022-12-07T00:33:33;36.17;;;17.50;;
4806;SDS011;2417;52.482;13.432;2022-12-07T00:36:03;34.57;;;17.37;;
4806;SDS011;2417;52.482;13.432;2022-12-07T00:38:35;35.60;;;18.17;;
4806;SDS011;2417;52.482;13.432;2022-12-07T00:41:04;39.73;;;20.67;;
4806;SDS011;2417;52.482;13.432;2022-12-07T00:43:33;37.50;;;19.00;;
4806;SDS011;2417;52.482;13.432;2022-12-07T00:46:00;33.23;;;18.27;;
4806;SDS011;2417;52.482;13.432;2022-12-07T00:48:29;46.10;;;24.63;;
4806;SDS011;2417;52.482;13.432;2022-12-07T00:50:56;30.70;;;16.20;;
4806;SDS011;2417;52.482;13.432;2022-12-07T00:53:26;38.27;;;20.10;;
4806;SDS011;2417;52.482;13.432;2022-12-07T00:55:54;39.37;;;21.30;;
4806;SDS011;2417;52.482;13.432;2022-12-07T00:58:22;44.43;;;23.03;;
4806;SDS011;2417;52.482;13.432;2022-12-07T01:00:49;30.47;;;17.00;;
4806;SDS011;2417;52.482;13.432;2022-12-07T01:03:17;27.23;;;14.77;;
4806;SDS011;2417;52.482;13.432;2022-12-07T01:05:49;31.93;;;18.30;;
4806;SDS011;2417;52.482;13.432;2022-12-07T01:08:17;34.90;;;20.20;;
4806;SDS011;2417;52.482;13.432;2022-12-07T01:10:46;29.40;;;16.57;;
4806;SDS011;2417;52.482;13.432;2022-12-07T01:13:14;29.77;;;18.17;;
4806;SDS011;2417;52.482;13.432;2022-12-07T01:15:42;36.40;;;20.30;;
4806;SDS011;2417;52.482;13.432;2022-12-07T01:18:10;28.47;;;15.80;;
4806;SDS011;2417;52.482;13.432;2022-12-07T01:20:38;30.07;;;16.80;;
4806;SDS011;2417;52.482;13.432;2022-12-07T01:23:06;25.40;;;14.60;;
4806;SDS011;2417;52.482;13.432;2022-12-07T01:25:34;52.57;;;29.33;;
4806;SDS011;2417;52.482;13.432;2022-12-07T01:28:03;51.27;;;29.70;;
4806;SDS011;2417;52.482;13.432;2022-12-07T01:30:31;37.30;;;20.70;;
4806;SDS011;2417;52.482;13.432;2022-12-07T01:32:59;33.03;;;19.33;;
4806;SDS011;2417;52.482;13.432;2022-12-07T01:35:27;39.00;;;23.17;;
4806;SDS011;2417;52.482;13.432;2022-12-07T01:37:55;27.97;;;16.77;;
4806;SDS011;2417;52.482;13.432;2022-12-07T01:40:22;24.27;;;13.90;;
4806;SDS011;2417;52.482;13.432;2022-12-07T01:42:52;53.27;;;31.00;;
4806;SDS011;2417;52.482;13.432;2022-12-07T01:45:37;34.50;;;20.10;;
4806;SDS011;2417;52.482;13.432;2022-12-07T01:48:05;24.47;;;13.07;;
4806;SDS011;2417;52.482;13.432;2022-12-07T01:50:35;25.47;;;13.47;;
4806;SDS011;2417;52.482;13.432;2022-12-07T01:53:04;33.73;;;19.20;;
4806;SDS011;2417;52.482;13.432;2022-12-07T01:55:32;21.00;;;12.97;;
4806;SDS011;2417;52.482;13.432;2022-12-07T01:58:01;20.77;;;11.60;;
4806;SDS011;2417;52.482;13.432;2022-12-07T02:00:29;22.40;;;13.80;;
4806;SDS011;2417;52.482;13.432;2022-12-07T02:03:01;21.23;;;12.17;;
4806;SDS011;2417;52.482;13.432;2022-12-07T02:05:31;16.87;;;10.37;;
4806;SDS011;2417;52.482;13.432;2022-12-07T02:08:00;22.23;;;13.57;;
4806;SDS011;2417;52.482;13.432;2022-12-07T02:10:28;23.80;;;14.13;;
4806;SDS011;2417;52.482;13.432;2022-12-07T02:12:58;16.37;;;9.93;;
4806;SDS011;2417;52.482;13.432;2022-12-07T02:15:28;29.57;;;16.83;;
4806;SDS011;2417;52.482;13.432;2022-12-07T02:18:01;24.87;;;13.83;;
4806;SDS011;2417;52.482;13.432;2022-12-07T02:20:31;38.03;;;24.10;;
4806;SDS011;2417;52.482;13.432;2022-12-07T02:25:50;16.77;;;9.50;;
4806;SDS011;2417;52.482;13.432;2022-12-07T02:28:25;25.03;;;15.43;;
4806;SDS011;2417;52.482;13.432;2022-12-07T02:30:57;27.27;;;16.67;;
4806;SDS011;2417;52.482;13.432;2022-12-07T02:33:28;15.10;;;9.87;;
4806;SDS011;2417;52.482;13.432;2022-12-07T02:35:58;21.93;;;12.47;;
4806;SDS011;2417;52.482;13.432;2022-12-07T02:38:28;32.60;;;19.87;;
4806;SDS011;2417;52.482;13.432;2022-12-07T02:41:00;21.70;;;13.53;;
4806;SDS011;2417;52.482;13.432;2022-12-07T02:43:30;30.20;;;18.30;;
4806;SDS011;2417;52.482;13.432;2022-12-07T02:46:03;21.07;;;12.20;;
4806;SDS011;2417;52.482;13.432;2022-12-07T02:48:31;26.27;;;14.53;;
4806;SDS011;2417;52.482;13.432;2022-12-07T02:51:01;33.83;;;19.50;;
4806;SDS011;2417;52.482;13.432;2022-12-07T02:53:33;34.37;;;18.97;;
4806;SDS011;2417;52.482;13.432;2022-12-07T02:56:02;17.80;;;11.57;;
4806;SDS011;2417;52.482;13.432;2022-12-07T02:58:33;16.80;;;10.40;;
4806;SDS011;2417;52.482;13.432;2022-12-07T03:01:08;17.70;;;11.70;;
4806;SDS011;2417;52.482;13.432;2022-12-07T03:03:39;15.87;;;9.30;;
4806;SDS011;2417;52.482;13.432;2022-12-07T03:06:11;16.60;;;10.57;;
4806;SDS011;2417;52.482;13.432;2022-12-07T03:12:24;23.23;;;13.63;;
4806;SDS011;2417;52.482;13.432;2022-12-07T03:14:55;18.47;;;10.80;;
4806;SDS011;2417;52.482;13.432;2022-12-07T03:17:26;15.93;;;10.40;;
4806;SDS011;2417;52.482;13.432;2022-12-07T03:19:57;19.77;;;10.97;;
4806;SDS011;2417;52.482;13.432;2022-12-07T03:22:26;21.60;;;11.97;;
4806;SDS011;2417;52.482;13.432;2022-12-07T03:24:57;14.83;;;9.20;;
4806;SDS011;2417;52.482;13.432;2022-12-07T03:27:25;16.30;;;10.17;;
4806;SDS011;2417;52.482;13.432;2022-12-07T03:29:56;20.33;;;11.70;;
4806;SDS011;2417;52.482;13.432;2022-12-07T03:32:29;20.03;;;12.43;;
4806;SDS011;2417;52.482;13.432;2022-12-07T03:35:00;18.63;;;10.90;;
4806;SDS011;2417;52.482;13.432;2022-12-07T03:37:53;15.23;;;9.70;;
4806;SDS011;2417;52.482;13.432;2022-12-07T03:40:22;17.50;;;10.70;;
4806;SDS011;2417;52.482;13.432;2022-12-07T03:42:51;20.40;;;10.67;;
4806;SDS011;2417;52.482;13.432;2022-12-07T03:45:19;26.30;;;11.40;;
4806;SDS011;2417;52.482;13.432;2022-12-07T03:47:52;24.13;;;13.13;;
4806;SDS011;2417;52.482;13.432;2022-12-07T03:50:21;16.57;;;10.33;;
4806;SDS011;2417;52.482;13.432;2022-12-07T03:52:52;16.57;;;10.27;;
4806;SDS011;2417;52.482;13.432;2022-12-07T03:55:23;19.57;;;11.87;;
4806;SDS011;2417;52.482;13.432;2022-12-07T03:57:53;21.20;;;11.87;;
4806;SDS011;2417;52.482;13.432;2022-12-07T04:00:22;19.83;;;11.07;;
4806;SDS011;2417;52.482;13.432;2022-12-07T04:02:52;23.23;;;13.27;;
4806;SDS011;2417;52.482;13.432;2022-12-07T04:05:21;24.80;;;14.67;;
4806;SDS011;2417;52.482;13.432;2022-12-07T04:07:49;22.93;;;12.67;;
4806;SDS011;2417;52.482;13.432;2022-12-07T04:10:17;22.10;;;12.20;;
4806;SDS011;2417;52.482;13.432;2022-12-07T04:12:45;29.37;;;16.67;;
4806;SDS011;2417;52.482;13.432;2022-12-07T04:15:13;23.07;;;11.37;;
4806;SDS011;2417;52.482;13.432;2022-12-07T04:17:41;21.50;;;12.70;;
4806;SDS011;2417;52.482;13.432;2022-12-07T04:20:11;32.70;;;17.97;;
4806;SDS011;2417;52.482;13.432;2022-12-07T04:22:39;36.50;;;19.17;;
4806;SDS011;2417;52.482;13.432;2022-12-07T04:25:06;31.10;;;16.80;;
4806;SDS011;2417;52.482;13.432;2022-12-07T04:27:34;32.27;;;18.33;;
4806;SDS011;2417;52.482;13.432;2022-12-07T04:30:03;31.87;;;16.27;;
4806;SDS011;2417;52.482;13.432;2022-12-07T04:32:31;35.37;;;16.60;;
4806;SDS011;2417;52.482;13.432;2022-12-07T04:34:59;43.80;;;22.00;;
4806;SDS011;2417;52.482;13.432;2022-12-07T04:37:28;36.70;;;17.40;;
4806;SDS011;2417;52.482;13.432;2022-12-07T04:39:56;34.93;;;16.77;;
4806;SDS011;2417;52.482;13.432;2022-12-07T04:42:24;37.10;;;17.60;;
4806;SDS011;2417;52.482;13.432;2022-12-07T04:44:52;38.43;;;18.87;;
4806;SDS011;2417;52.482;13.432;2022-12-07T04:47:20;43.23;;;19.37;;
4806;SDS011;2417;52.482;13.432;2022-12-07T04:49:48;44.70;;;21.80;;
4806;SDS011;2417;52.482;13.432;2022-12-07T04:52:18;48.50;;;21.97;;
4806;SDS011;2417;52.482;13.432;2022-12-07T04:54:47;45.53;;;21.00;;
4806;SDS011;2417;52.482;13.432;2022-12-07T04:57:15;47.30;;;20.83;;
4806;SDS011;2417;52.482;13.432;2022-12-07T04:59:43;62.87;;;28.43;;
4806;SDS011;2417;52.482;13.432;2022-12-07T05:02:11;57.80;;;25.20;;
4806;SDS011;2417;52.482;13.432;2022-12-07T05:04:39;54.10;;;23.43;;
4806;SDS011;2417;52.482;13.432;2022-12-07T05:07:08;51.17;;;22.30;;
4806;SDS011;2417;52.482;13.432;2022-12-07T05:09:36;49.47;;;21.77;;
4806;SDS011;2417;52.482;13.432;2022-12-07T05:12:05;58.70;;;26.17;;
4806;SDS011;2417;52.482;13.432;2022-12-07T05:14:35;59.37;;;27.73;;
4806;SDS011;2417;52.482;13.432;2022-12-07T05:17:03;58.60;;;24.97;;
4806;SDS011;2417;52.482;13.432;2022-12-07T05:19:31;59.27;;;23.70;;
4806;SDS011;2417;52.482;13.432;2022-12-07T05:21:58;56.17;;;22.30;;
4806;SDS011;2417;52.482;13.432;2022-12-07T05:24:26;53.97;;;23.70;;
4806;SDS011;2417;52.482;13.432;2022-12-07T05:26:55;54.37;;;23.70;;
4806;SDS011;2417;52.482;13.432;2022-12-07T05:29:24;64.50;;;26.33;;
4806;SDS011;2417;52.482;13.432;2022-12-07T05:31:52;67.70;;;25.83;;
4806;SDS011;2417;52.482;13.432;2022-12-07T05:34:20;63.03;;;26.70;;
4806;SDS011;2417;52.482;13.432;2022-12-07T05:36:47;72.40;;;27.87;;
4806;SDS011;2417;52.482;13.432;2022-12-07T05:39:16;64.43;;;25.93;;
4806;SDS011;2417;52.482;13.432;2022-12-07T05:41:44;60.40;;;26.33;;
4806;SDS011;2417;52.482;13.432;2022-12-07T05:44:33;71.93;;;30.23;;
4806;SDS011;2417;52.482;13.432;2022-12-07T05:47:01;69.77;;;31.30;;
4806;SDS011;2417;52.482;13.432;2022-12-07T05:49:29;77.20;;;29.50;;
4806;SDS011;2417;52.482;13.432;2022-12-07T05:51:57;68.10;;;26.73;;
4806;SDS011;2417;52.482;13.432;2022-12-07T05:54:25;69.33;;;27.83;;
4806;SDS011;2417;52.482;13.432;2022-12-07T05:56:53;67.27;;;26.20;;
4806;SDS011;2417;52.482;13.432;2022-12-07T05:59:21;71.10;;;29.47;;
4806;SDS011;2417;52.482;13.432;2022-12-07T06:01:56;75.67;;;28.23;;
4806;SDS011;2417;52.482;13.432;2022-12-07T06:04:24;71.70;;;28.10;;
4806;SDS011;2417;52.482;13.432;2022-12-07T06:06:52;81.10;;;29.70;;
4806;SDS011;2417;52.482;13.432;2022-12-07T06:09:20;75.67;;;29.77;;
4806;SDS011;2417;52.482;13.432;2022-12-07T06:11:49;87.57;;;34.10;;
4806;SDS011;2417;52.482;13.432;2022-12-07T06:14:35;85.90;;;31.97;;
4806;SDS011;2417;52.482;13.432;2022-12-07T06:17:04;76.60;;;27.47;;
4806;SDS011;2417;52.482;13.432;2022-12-07T06:19:32;88.17;;;34.17;;
4806;SDS011;2417;52.482;13.432;2022-12-07T06:22:00;90.80;;;32.90;;
4806;SDS011;2417;52.482;13.432;2022-12-07T06:24:28;80.17;;;29.60;;
4806;SDS011;2417;52.482;13.432;2022-12-07T06:26:55;102.90;;;30.60;;
4806;SDS011;2417;52.482;13.432;2022-12-07T06:29:23;74.87;;;27.63;;
4806;SDS011;2417;52.482;13.432;2022-12-07T06:31:51;87.33;;;30.10;;
4806;SDS011;2417;52.482;13.432;2022-12-07T06:34:21;79.67;;;28.80;;
4806;SDS011;2417;52.482;13.432;2022-12-07T06:36:49;78.30;;;29.97;;
4806;SDS011;2417;52.482;13.432;2022-12-07T06:39:21;75.30;;;27.93;;
4806;SDS011;2417;52.482;13.432;2022-12-07T06:41:49;85.60;;;27.13;;
4806;SDS011;2417;52.482;13.432;2022-12-07T06:44:18;79.37;;;29.03;;
4806;SDS011;2417;52.482;13.432;2022-12-07T06:46:46;103.83;;;36.93;;
4806;SDS011;2417;52.482;13.432;2022-12-07T06:49:13;91.53;;;32.30;;
4806;SDS011;2417;52.482;13.432;2022-12-07T06:51:43;80.10;;;30.03;;
4806;SDS011;2417;52.482;13.432;2022-12-07T06:54:11;102.00;;;30.63;;
4806;SDS011;2417;52.482;13.432;2022-12-07T06:56:39;83.53;;;30.27;;
4806;SDS011;2417;52.482;13.432;2022-12-07T06:59:07;82.07;;;29.70;;
4806;SDS011;2417;52.482;13.432;2022-12-07T07:01:35;84.43;;;30.23;;
4806;SDS011;2417;52.482;13.432;2022-12-07T07:04:03;96.30;;;34.83;;
4806;SDS011;2417;52.482;13.432;2022-12-07T07:06:31;90.50;;;33.20;;
4806;SDS011;2417;52.482;13.432;2022-12-07T07:09:00;86.77;;;31.23;;
4806;SDS011;2417;52.482;13.432;2022-12-07T07:11:28;88.83;;;34.60;;
4806;SDS011;2417;52.482;13.432;2022-12-07T07:13:56;85.40;;;33.43;;
4806;SDS011;2417;52.482;13.432;2022-12-07T07:16:28;88.70;;;31.73;;
4806;SDS011;2417;52.482;13.432;2022-12-07T07:18:57;83.00;;;32.87;;
4806;SDS011;2417;52.482;13.432;2022-12-07T07:21:25;94.83;;;35.20;;
4806;SDS011;2417;52.482;13.432;2022-12-07T07:23:53;77.83;;;30.90;;
4806;SDS011;2417;52.482;13.432;2022-12-07T07:26:22;69.60;;;28.77;;
4806;SDS011;2417;52.482;13.432;2022-12-07T07:28:49;77.07;;;29.60;;
4806;SDS011;2417;52.482;13.432;2022-12-07T07:31:17;75.17;;;28.87;;
4806;SDS011;2417;52.482;13.432;2022-12-07T07:33:45;75.80;;;29.10;;
4806;SDS011;2417;52.482;13.432;2022-12-07T07:36:13;70.20;;;27.33;;
4806;SDS011;2417;52.482;13.432;2022-12-07T07:38:41;67.57;;;27.97;;
4806;SDS011;2417;52.482;13.432;2022-12-07T07:41:09;56.73;;;25.40;;
4806;SDS011;2417;52.482;13.432;2022-12-07T07:43:38;54.50;;;22.80;;
4806;SDS011;2417;52.482;13.432;2022-12-07T07:46:06;56.70;;;23.20;;
4806;SDS011;2417;52.482;13.432;2022-12-07T07:48:33;48.40;;;21.37;;
4806;SDS011;2417;52.482;13.432;2022-12-07T07:51:04;50.97;;;23.27;;
4806;SDS011;2417;52.482;13.432;2022-12-07T07:53:32;54.00;;;23.43;;
4806;SDS011;2417;52.482;13.432;2022-12-07T07:56:00;60.27;;;25.00;;
4806;SDS011;2417;52.482;13.432;2022-12-07T07:58:27;53.43;;;23.73;;
4806;SDS011;2417;52.482;13.432;2022-12-07T08:01:04;52.23;;;23.10;;
4806;SDS011;2417;52.482;13.432;2022-12-07T08:03:32;54.07;;;22.73;;
4806;SDS011;2417;52.482;13.432;2022-12-07T08:06:00;46.90;;;21.03;;
4806;SDS011;2417;52.482;13.432;2022-12-07T08:08:29;42.60;;;19.50;;
4806;SDS011;2417;52.482;13.432;2022-12-07T08:10:56;43.67;;;18.93;;
4806;SDS011;2417;52.482;13.432;2022-12-07T08:13:33;37.70;;;17.17;;
4806;SDS011;2417;52.482;13.432;2022-12-07T08:16:07;38.87;;;17.53;;
4806;SDS011;2417;52.482;13.432;2022-12-07T08:18:40;30.50;;;15.20;;
4806;SDS011;2417;52.482;13.432;2022-12-07T08:21:09;36.90;;;15.87;;
4806;SDS011;2417;52.482;13.432;2022-12-07T08:23:38;32.83;;;15.40;;
4806;SDS011;2417;52.482;13.432;2022-12-07T08:26:06;29.93;;;15.03;;
4806;SDS011;2417;52.482;13.432;2022-12-07T08:28:34;31.57;;;14.40;;
4806;SDS011;2417;52.482;13.432;2022-12-07T08:31:02;31.80;;;13.00;;
4806;SDS011;2417;52.482;13.432;2022-12-07T08:33:32;28.43;;;13.93;;
4806;SDS011;2417;52.482;13.432;2022-12-07T08:36:01;26.13;;;12.10;;
4806;SDS011;2417;52.482;13.432;2022-12-07T08:38:28;28.43;;;12.37;;
4806;SDS011;2417;52.482;13.432;2022-12-07T08:40:58;21.17;;;12.00;;
4806;SDS011;2417;52.482;13.432;2022-12-07T08:43:26;20.43;;;10.40;;
4806;SDS011;2417;52.482;13.432;2022-12-07T08:45:55;13.80;;;8.10;;
4806;SDS011;2417;52.482;13.432;2022-12-07T08:48:28;13.57;;;8.40;;
4806;SDS011;2417;52.482;13.432;2022-12-07T08:50:57;14.17;;;8.33;;
4806;SDS011;2417;52.482;13.432;2022-12-07T08:53:25;9.93;;;6.23;;
4806;SDS011;2417;52.482;13.432;2022-12-07T08:55:53;11.30;;;5.80;;
4806;SDS011;2417;52.482;13.432;2022-12-07T08:58:21;6.83;;;4.03;;
4806;SDS011;2417;52.482;13.432;2022-12-07T09:00:48;8.13;;;4.47;;
4806;SDS011;2417;52.482;13.432;2022-12-07T09:03:16;6.83;;;4.00;;
4806;SDS011;2417;52.482;13.432;2022-12-07T09:05:44;8.10;;;4.07;;
4806;SDS011;2417;52.482;13.432;2022-12-07T09:08:13;7.57;;;3.60;;
4806;SDS011;2417;52.482;13.432;2022-12-07T09:10:41;3.90;;;2.80;;
4806;SDS011;2417;52.482;13.432;2022-12-07T09:13:09;7.00;;;4.57;;
4806;SDS011;2417;52.482;13.432;2022-12-07T09:15:37;6.33;;;3.20;;
4806;SDS011;2417;52.482;13.432;2022-12-07T09:18:05;4.63;;;2.80;;
4806;SDS011;2417;52.482;13.432;2022-12-07T09:20:33;6.30;;;3.13;;
4806;SDS011;2417;52.482;13.432;2022-12-07T09:23:01;5.37;;;3.03;;
4806;SDS011;2417;52.482;13.432;2022-12-07T09:25:30;4.73;;;3.00;;
4806;SDS011;2417;52.482;13.432;2022-12-07T09:27:58;5.30;;;3.37;;
4806;SDS011;2417;52.482;13.432;2022-12-07T09:30:26;4.93;;;2.83;;
4806;SDS011;2417;52.482;13.432;2022-12-07T09:32:56;5.10;;;2.97;;
4806;SDS011;2417;52.482;13.432;2022-12-07T09:35:24;4.47;;;2.70;;
4806;SDS011;2417;52.482;13.432;2022-12-07T09:37:52;7.07;;;3.27;;
4806;SDS011;2417;52.482;13.432;2022-12-07T09:40:22;4.67;;;3.00;;
4806;SDS011;2417;52.482;13.432;2022-12-07T09:42:52;4.73;;;2.97;;
4806;SDS011;2417;52.482;13.432;2022-12-07T09:45:22;5.57;;;3.53;;
4806;SDS011;2417;52.482;13.432;2022-12-07T09:47:50;7.47;;;4.40;;
4806;SDS011;2417;52.482;13.432;2022-12-07T09:50:19;6.40;;;4.53;;
4806;SDS011;2417;52.482;13.432;2022-12-07T09:52:47;7.80;;;4.43;;
4806;SDS011;2417;52.482;13.432;2022-12-07T09:55:16;5.67;;;3.60;;
4806;SDS011;2417;52.482;13.432;2022-12-07T09:57:47;6.20;;;2.60;;
4806;SDS011;2417;52.482;13.432;2022-12-07T10:00:17;3.80;;;2.60;;
4806;SDS011;2417;52.482;13.432;2022-12-07T10:02:46;5.30;;;2.70;;
4806;SDS011;2417;52.482;13.432;2022-12-07T10:05:15;6.77;;;2.90;;
4806;SDS011;2417;52.482;13.432;2022-12-07T10:07:50;6.80;;;3.63;;
4806;SDS011;2417;52.482;13.432;2022-12-07T10:10:19;7.00;;;4.60;;
4806;SDS011;2417;52.482;13.432;2022-12-07T10:12:53;6.60;;;3.63;;
4806;SDS011;2417;52.482;13.432;2022-12-07T10:15:22;6.90;;;3.47;;
4806;SDS011;2417;52.482;13.432;2022-12-07T10:17:51;4.50;;;3.30;;
4806;SDS011;2417;52.482;13.432;2022-12-07T10:20:20;5.80;;;3.80;;
4806;SDS011;2417;52.482;13.432;2022-12-07T10:22:59;5.30;;;3.80;;
4806;SDS011;2417;52.482;13.432;2022-12-07T10:25:28;6.47;;;4.13;;
4806;SDS011;2417;52.482;13.432;2022-12-07T10:28:03;9.63;;;3.77;;
4806;SDS011;2417;52.482;13.432;2022-12-07T10:30:50;6.50;;;3.97;;
4806;SDS011;2417;52.482;13.432;2022-12-07T10:36:09;10.27;;;5.87;;
4806;SDS011;2417;52.482;13.432;2022-12-07T10:38:44;9.40;;;4.73;;
4806;SDS011;2417;52.482;13.432;2022-12-07T10:41:12;11.40;;;5.60;;
4806;SDS011;2417;52.482;13.432;2022-12-07T10:43:46;28.73;;;7.97;;
4806;SDS011;2417;52.482;13.432;2022-12-07T10:49:01;10.03;;;4.37;;
4806;SDS011;2417;52.482;13.432;2022-12-07T10:51:33;8.10;;;4.43;;
4806;SDS011;2417;52.482;13.432;2022-12-07T10:54:09;9.70;;;5.57;;
4806;SDS011;2417;52.482;13.432;2022-12-07T11:02:15;11.30;;;4.80;;
4806;SDS011;2417;52.482;13.432;2022-12-07T11:04:53;10.23;;;5.90;;
4806;SDS011;2417;52.482;13.432;2022-12-07T11:07:27;9.70;;;6.23;;
4806;SDS011;2417;52.482;13.432;2022-12-07T11:10:02;6.97;;;4.70;;
4806;SDS011;2417;52.482;13.432;2022-12-07T11:12:42;9.80;;;5.20;;
4806;SDS011;2417;52.482;13.432;2022-12-07T11:15:16;14.03;;;6.20;;
4806;SDS011;2417;52.482;13.432;2022-12-07T11:17:46;8.70;;;5.30;;
4806;SDS011;2417;52.482;13.432;2022-12-07T11:20:24;9.20;;;5.70;;
4806;SDS011;2417;52.482;13.432;2022-12-07T11:22:56;7.93;;;4.77;;
4806;SDS011;2417;52.482;13.432;2022-12-07T11:25:29;9.07;;;4.33;;
4806;SDS011;2417;52.482;13.432;2022-12-07T11:28:03;8.77;;;4.20;;
4806;SDS011;2417;52.482;13.432;2022-12-07T11:30:36;5.73;;;4.07;;
4806;SDS011;2417;52.482;13.432;2022-12-07T11:33:10;6.50;;;3.90;;
4806;SDS011;2417;52.482;13.432;2022-12-07T11:35:45;7.40;;;5.03;;
4806;SDS011;2417;52.482;13.432;2022-12-07T11:38:14;11.40;;;4.73;;
4806;SDS011;2417;52.482;13.432;2022-12-07T11:40:46;10.47;;;5.93;;
4806;SDS011;2417;52.482;13.432;2022-12-07T11:43:19;9.03;;;5.20;;
4806;SDS011;2417;52.482;13.432;2022-12-07T11:45:51;7.40;;;4.20;;
4806;SDS011;2417;52.482;13.432;2022-12-07T11:48:21;12.83;;;5.80;;
4806;SDS011;2417;52.482;13.432;2022-12-07T11:50:51;10.67;;;4.80;;
4806;SDS011;2417;52.482;13.432;2022-12-07T11:53:23;7.07;;;3.83;;
4806;SDS011;2417;52.482;13.432;2022-12-07T11:55:54;7.40;;;4.77;;
4806;SDS011;2417;52.482;13.432;2022-12-07T11:58:35;9.93;;;4.87;;
4806;SDS011;2417;52.482;13.432;2022-12-07T12:01:08;7.40;;;4.23;;
4806;SDS011;2417;52.482;13.432;2022-12-07T12:03:40;7.50;;;4.80;;
4806;SDS011;2417;52.482;13.432;2022-12-07T12:06:16;6.87;;;4.33;;
4806;SDS011;2417;52.482;13.432;2022-12-07T12:08:45;7.43;;;4.47;;
4806;SDS011;2417;52.482;13.432;2022-12-07T12:11:38;6.60;;;4.10;;
4806;SDS011;2417;52.482;13.432;2022-12-07T12:14:24;8.43;;;4.27;;
4806;SDS011;2417;52.482;13.432;2022-12-07T12:19:55;7.57;;;4.30;;
4806;SDS011;2417;52.482;13.432;2022-12-07T12:22:32;7.73;;;4.40;;
4806;SDS011;2417;52.482;13.432;2022-12-07T12:25:02;10.77;;;3.83;;
4806;SDS011;2417;52.482;13.432;2022-12-07T12:27:32;7.47;;;4.10;;
4806;SDS011;2417;52.482;13.432;2022-12-07T12:30:02;10.03;;;4.80;;
4806;SDS011;2417;52.482;13.432;2022-12-07T12:32:34;12.37;;;4.00;;
4806;SDS011;2417;52.482;13.432;2022-12-07T12:35:27;5.97;;;3.10;;
4806;SDS011;2417;52.482;13.432;2022-12-07T12:40:42;6.07;;;3.83;;
4806;SDS011;2417;52.482;13.432;2022-12-07T12:48:45;8.87;;;3.10;;
4806;SDS011;2417;52.482;13.432;2022-12-07T12:54:03;6.80;;;2.67;;
4806;SDS011;2417;52.482;13.432;2022-12-07T12:56:36;12.47;;;4.27;;
4806;SDS011;2417;52.482;13.432;2022-12-07T12:59:23;8.47;;;3.57;;
4806;SDS011;2417;52.482;13.432;2022-12-07T13:01:53;10.83;;;3.90;;
4806;SDS011;2417;52.482;13.432;2022-12-07T13:04:27;10.10;;;4.70;;
4806;SDS011;2417;52.482;13.432;2022-12-07T13:06:55;25.47;;;4.27;;
4806;SDS011;2417;52.482;13.432;2022-12-07T13:09:24;16.20;;;3.57;;
4806;SDS011;2417;52.482;13.432;2022-12-07T13:12:00;5.80;;;3.00;;
4806;SDS011;2417;52.482;13.432;2022-12-07T13:14:40;10.40;;;3.87;;
4806;SDS011;2417;52.482;13.432;2022-12-07T13:17:08;6.63;;;3.23;;
4806;SDS011;2417;52.482;13.432;2022-12-07T13:22:38;12.13;;;3.80;;
4806;SDS011;2417;52.482;13.432;2022-12-07T13:25:07;8.07;;;3.30;;
4806;SDS011;2417;52.482;13.432;2022-12-07T13:27:39;12.77;;;3.47;;
4806;SDS011;2417;52.482;13.432;2022-12-07T13:30:09;10.90;;;4.80;;
4806;SDS011;2417;52.482;13.432;2022-12-07T13:32:40;23.80;;;4.10;;
4806;SDS011;2417;52.482;13.432;2022-12-07T13:37:51;12.07;;;3.70;;
4806;SDS011;2417;52.482;13.432;2022-12-07T13:40:20;9.10;;;3.93;;
4806;SDS011;2417;52.482;13.432;2022-12-07T13:42:57;10.83;;;3.87;;
4806;SDS011;2417;52.482;13.432;2022-12-07T13:45:26;17.87;;;3.97;;
4806;SDS011;2417;52.482;13.432;2022-12-07T13:48:15;10.57;;;4.67;;
4806;SDS011;2417;52.482;13.432;2022-12-07T13:50:47;10.43;;;4.03;;
4806;SDS011;2417;52.482;13.432;2022-12-07T13:53:20;7.83;;;3.60;;
4806;SDS011;2417;52.482;13.432;2022-12-07T13:55:47;8.80;;;4.50;;
4806;SDS011;2417;52.482;13.432;2022-12-07T13:58:22;10.93;;;3.10;;
4806;SDS011;2417;52.482;13.432;2022-12-07T14:00:50;8.50;;;2.73;;
4806;SDS011;2417;52.482;13.432;2022-12-07T14:03:29;7.40;;;3.20;;
4806;SDS011;2417;52.482;13.432;2022-12-07T14:06:14;10.17;;;2.83;;
4806;SDS011;2417;52.482;13.432;2022-12-07T14:08:43;4.80;;;2.93;;
4806;SDS011;2417;52.482;13.432;2022-12-07T14:11:13;6.47;;;2.80;;
4806;SDS011;2417;52.482;13.432;2022-12-07T14:13:58;6.93;;;2.70;;
4806;SDS011;2417;52.482;13.432;2022-12-07T14:16:28;11.17;;;3.40;;
4806;SDS011;2417;52.482;13.432;2022-12-07T14:18:57;7.63;;;3.03;;
4806;SDS011;2417;52.482;13.432;2022-12-07T14:21:26;16.93;;;3.10;;
4806;SDS011;2417;52.482;13.432;2022-12-07T14:24:08;4.77;;;2.80;;
4806;SDS011;2417;52.482;13.432;2022-12-07T14:26:37;9.37;;;3.23;;
4806;SDS011;2417;52.482;13.432;2022-12-07T14:31:53;6.83;;;2.60;;
4806;SDS011;2417;52.482;13.432;2022-12-07T14:34:23;7.33;;;2.47;;
4806;SDS011;2417;52.482;13.432;2022-12-07T14:36:51;8.47;;;2.90;;
4806;SDS011;2417;52.482;13.432;2022-12-07T14:39:19;5.27;;;2.40;;
4806;SDS011;2417;52.482;13.432;2022-12-07T14:41:47;5.80;;;2.73;;
4806;SDS011;2417;52.482;13.432;2022-12-07T14:44:18;8.77;;;3.37;;
4806;SDS011;2417;52.482;13.432;2022-12-07T14:46:53;6.07;;;2.63;;
4806;SDS011;2417;52.482;13.432;2022-12-07T14:49:41;4.60;;;2.60;;
4806;SDS011;2417;52.482;13.432;2022-12-07T14:52:11;5.93;;;2.80;;
4806;SDS011;2417;52.482;13.432;2022-12-07T14:55:00;8.10;;;2.73;;
4806;SDS011;2417;52.482;13.432;2022-12-07T14:57:28;12.10;;;3.20;;
4806;SDS011;2417;52.482;13.432;2022-12-07T14:59:56;11.90;;;3.60;;
4806;SDS011;2417;52.482;13.432;2022-12-07T15:02:25;10.40;;;2.50;;
4806;SDS011;2417;52.482;13.432;2022-12-07T15:04:53;5.20;;;2.10;;
4806;SDS011;2417;52.482;13.432;2022-12-07T15:07:21;9.00;;;3.10;;
4806;SDS011;2417;52.482;13.432;2022-12-07T15:09:53;9.43;;;2.70;;
4806;SDS011;2417;52.482;13.432;2022-12-07T15:12:21;10.57;;;3.10;;
4806;SDS011;2417;52.482;13.432;2022-12-07T15:14:51;10.57;;;2.80;;
4806;SDS011;2417;52.482;13.432;2022-12-07T15:17:18;18.77;;;3.57;;
4806;SDS011;2417;52.482;13.432;2022-12-07T15:19:58;10.20;;;3.13;;
4806;SDS011;2417;52.482;13.432;2022-12-07T15:22:26;15.47;;;3.00;;
4806;SDS011;2417;52.482;13.432;2022-12-07T15:25:05;9.80;;;4.00;;
4806;SDS011;2417;52.482;13.432;2022-12-07T15:27:33;6.90;;;2.93;;
4806;SDS011;2417;52.482;13.432;2022-12-07T15:30:02;8.20;;;3.30;;
4806;SDS011;2417;52.482;13.432;2022-12-07T15:32:30;8.00;;;2.73;;
4806;SDS011;2417;52.482;13.432;2022-12-07T15:34:59;6.83;;;2.90;;
4806;SDS011;2417;52.482;13.432;2022-12-07T15:37:49;8.80;;;2.87;;
4806;SDS011;2417;52.482;13.432;2022-12-07T15:40:17;9.90;;;2.83;;
4806;SDS011;2417;52.482;13.432;2022-12-07T15:42:45;6.33;;;2.57;;